Time;durP1;ratioP1;P1;durP2;ratioP2;P2;SDS_P1;SDS_P2;PMS_P1;PMS_P2;Temp;Humidity;BMP_temperature;BMP_pressure;BME280_temperature;BME280_humidity;BME280_pressure;Samples;Min_cycle;Max_cycle;Signal;HPM_P1;HPM_P2
2023/08/04 00:00:14;;;;;;;11.50;5.00;;;;;15.60;100388.00;;;;5005565;28;20238;-69
2023/08/04 00:03:02;;;;;;;5.17;4.10;;;;;15.50;100389.00;;;;5005719;28;20234;-68
2023/08/04 00:05:48;;;;;;;13.10;5.80;;;;;15.50;100398.00;;;;5006227;28;20253;-69
2023/08/04 00:08:35;;;;;;;10.73;4.53;;;;;15.60;100405.00;;;;5008288;28;20820;-70
2023/08/04 00:11:21;;;;;;;6.77;4.40;;;;;15.60;100391.00;;;;5001209;28;20284;-69
2023/08/04 00:14:09;;;;;;;10.00;4.63;;;;;15.60;100401.00;;;;5006887;28;20902;-69
2023/08/04 00:16:55;;;;;;;6.17;4.27;;;;;15.50;100391.00;;;;5006017;28;20237;-69
2023/08/04 00:19:43;;;;;;;8.77;4.33;;;;;15.60;100393.00;;;;4999617;28;20227;-69
2023/08/04 00:22:30;;;;;;;10.27;4.53;;;;;15.60;100392.00;;;;5005434;28;20238;-69
2023/08/04 00:25:16;;;;;;;8.77;4.47;;;;;15.60;100396.00;;;;5003405;28;20288;-69
2023/08/04 00:28:03;;;;;;;6.07;4.30;;;;;15.60;100398.00;;;;5005157;28;20233;-69
2023/08/04 00:30:50;;;;;;;12.27;4.70;;;;;15.60;100402.00;;;;5001683;28;20276;-69
2023/08/04 00:33:36;;;;;;;10.07;4.43;;;;;15.60;100409.00;;;;4990724;28;20233;-70
2023/08/04 00:36:24;;;;;;;7.73;4.50;;;;;15.60;100409.00;;;;5010334;28;20237;-67
2023/08/04 00:39:11;;;;;;;7.83;4.57;;;;;15.60;100411.00;;;;5010684;28;20227;-69
2023/08/04 00:41:57;;;;;;;8.37;4.73;;;;;15.60;100410.00;;;;5003355;28;20304;-70
2023/08/04 00:44:44;;;;;;;9.67;4.43;;;;;15.60;100418.00;;;;5008944;28;20240;-69
2023/08/04 00:47:35;;;;;;;12.10;5.10;;;;;15.60;100417.00;;;;5009679;28;20778;-68
2023/08/04 00:50:21;;;;;;;10.77;4.03;;;;;15.60;100413.00;;;;5002855;28;20233;-69
2023/08/04 00:53:10;;;;;;;13.40;4.90;;;;;15.70;100425.00;;;;5003772;28;20241;-69
2023/08/04 00:55:57;;;;;;;11.17;4.10;;;;;15.70;100426.00;;;;5003874;28;20245;-69
2023/08/04 00:58:43;;;;;;;9.13;4.40;;;;;15.60;100423.00;;;;5005986;28;21780;-69
2023/08/04 01:01:31;;;;;;;9.17;4.50;;;;;15.50;100430.00;;;;4999071;28;20350;-68
2023/08/04 01:04:18;;;;;;;8.47;4.40;;;;;15.60;100430.00;;;;5005053;28;20250;-69
2023/08/04 01:07:18;;;;;;;6.87;4.37;;;;;15.50;100436.00;;;;5005433;28;20374;-68
2023/08/04 01:10:16;;;;;;;9.43;4.57;;;;;15.60;100435.00;;;;5005372;28;20296;-69
2023/08/04 01:13:05;;;;;;;9.97;4.40;;;;;15.60;100421.00;;;;5016376;28;20609;-69
2023/08/04 01:15:53;;;;;;;12.23;4.27;;;;;15.50;100444.00;;;;5024993;28;20957;-70
2023/08/04 01:18:40;;;;;;;11.10;4.80;;;;;15.60;100449.00;;;;5020014;28;20843;-67
2023/08/04 01:21:28;;;;;;;10.27;4.57;;;;;15.70;100442.00;;;;5023960;28;20765;-70
2023/08/04 01:24:15;;;;;;;10.57;4.43;;;;;15.60;100436.00;;;;5020632;28;20352;-70
2023/08/04 01:27:02;;;;;;;8.07;4.50;;;;;15.60;100442.00;;;;5024319;28;20705;-70
2023/08/04 01:29:48;;;;;;;11.23;4.57;;;;;15.60;100444.00;;;;5018407;28;20226;-68
2023/08/04 01:32:35;;;;;;;8.87;4.60;;;;;15.60;100439.00;;;;5020699;28;20307;-69
2023/08/04 01:35:21;;;;;;;10.70;4.83;;;;;15.60;100453.00;;;;5025232;28;20234;-70
2023/08/04 01:38:09;;;;;;;9.17;4.53;;;;;15.60;100439.00;;;;5023091;28;20248;-69
2023/08/04 01:40:56;;;;;;;7.67;4.13;;;;;15.70;100456.00;;;;5022313;28;20238;-69
2023/08/04 01:43:42;;;;;;;8.83;4.67;;;;;15.70;100457.00;;;;5023265;28;20268;-68
2023/08/04 01:46:29;;;;;;;9.10;4.53;;;;;15.60;100455.00;;;;5024634;28;20231;-69
2023/08/04 01:49:16;;;;;;;7.87;5.30;;;;;15.60;100459.00;;;;5023885;28;20601;-69
2023/08/04 01:52:02;;;;;;;8.90;4.50;;;;;15.50;100472.00;;;;5021819;28;20245;-69
2023/08/04 01:54:50;;;;;;;7.30;4.10;;;;;15.70;100464.00;;;;5022452;28;20233;-68
2023/08/04 01:57:37;;;;;;;12.27;3.97;;;;;15.60;100472.00;;;;5020516;28;20262;-69
2023/08/04 02:00:23;;;;;;;15.23;5.00;;;;;15.70;100476.00;;;;5017069;28;20225;-69
2023/08/04 02:03:10;;;;;;;9.80;4.90;;;;;15.60;100472.00;;;;5023679;28;20593;-69
2023/08/04 02:05:56;;;;;;;10.77;4.63;;;;;15.60;100472.00;;;;5021191;28;20360;-69
2023/08/04 02:08:43;;;;;;;9.37;4.50;;;;;15.60;100471.00;;;;5017852;28;20229;-70
2023/08/04 02:11:31;;;;;;;7.37;4.27;;;;;15.60;100466.00;;;;5023867;28;20228;-69
2023/08/04 02:14:17;;;;;;;11.03;5.23;;;;;15.50;100466.00;;;;5025310;28;20229;-69
2023/08/04 02:17:05;;;;;;;9.30;4.33;;;;;15.50;100471.00;;;;5027260;28;20238;-69
2023/08/04 02:19:51;;;;;;;12.73;5.00;;;;;15.50;100480.00;;;;5027640;28;20232;-69
2023/08/04 02:22:38;;;;;;;8.67;4.77;;;;;15.50;100485.00;;;;5019846;28;20240;-69
2023/08/04 02:25:24;;;;;;;14.87;5.00;;;;;15.50;100488.00;;;;5021663;28;20937;-70
2023/08/04 02:28:12;;;;;;;8.53;4.83;;;;;15.50;100482.00;;;;5026034;28;20237;-68
2023/08/04 02:30:59;;;;;;;9.10;4.43;;;;;15.50;100469.00;;;;5024943;28;20248;-68
2023/08/04 02:33:48;;;;;;;9.60;4.80;;;;;15.60;100474.00;;;;5027034;28;20352;-68
2023/08/04 02:36:35;;;;;;;11.50;4.63;;;;;15.50;100477.00;;;;5021554;28;20308;-68
2023/08/04 02:39:21;;;;;;;8.50;4.50;;;;;15.40;100474.00;;;;5017059;28;20757;-68
2023/08/04 02:42:07;;;;;;;11.07;4.53;;;;;15.40;100477.00;;;;5021277;28;20240;-69
2023/08/04 02:44:56;;;;;;;8.83;4.77;;;;;15.50;100484.00;;;;5019638;28;20232;-70
2023/08/04 02:47:42;;;;;;;12.57;4.97;;;;;15.40;100482.00;;;;5022080;28;20251;-69
2023/08/04 02:50:28;;;;;;;7.33;5.00;;;;;15.50;100487.00;;;;5019724;28;20233;-69
2023/08/04 02:53:14;;;;;;;12.77;5.07;;;;;15.40;100492.00;;;;5022192;28;20231;-69
2023/08/04 02:56:08;;;;;;;10.80;4.50;;;;;15.50;100483.00;;;;5026717;28;20822;-67
2023/08/04 02:58:55;;;;;;;9.47;5.30;;;;;15.30;100485.00;;;;5022809;28;21046;-69
2023/08/04 03:01:43;;;;;;;12.20;5.07;;;;;15.40;100489.00;;;;5027204;28;20271;-69
2023/08/04 03:04:30;;;;;;;8.33;5.03;;;;;15.40;100484.00;;;;5027178;28;20288;-70
2023/08/04 03:07:17;;;;;;;10.07;4.80;;;;;15.40;100484.00;;;;5026513;28;20248;-68
2023/08/04 03:10:04;;;;;;;7.80;4.80;;;;;15.40;100487.00;;;;5026745;28;20729;-69
2023/08/04 03:12:50;;;;;;;11.67;5.20;;;;;15.40;100494.00;;;;5026696;28;20242;-69
2023/08/04 03:15:37;;;;;;;15.43;5.67;;;;;15.30;100486.00;;;;5025774;28;20622;-69
2023/08/04 03:18:25;;;;;;;12.33;5.77;;;;;15.40;100488.00;;;;5017253;28;20229;-68
2023/08/04 03:21:12;;;;;;;11.20;5.13;;;;;15.40;100499.00;;;;5030420;28;20316;-68
2023/08/04 03:23:58;;;;;;;13.63;5.30;;;;;15.40;100500.00;;;;5026486;28;20233;-69
2023/08/04 03:26:44;;;;;;;9.60;5.30;;;;;15.40;100498.00;;;;5020982;28;20245;-69
2023/08/04 03:29:31;;;;;;;12.87;6.10;;;;;15.50;100497.00;;;;5022284;28;20229;-68
2023/08/04 03:32:17;;;;;;;10.97;5.13;;;;;15.30;100511.00;;;;5025989;28;20612;-69
2023/08/04 03:35:06;;;;;;;14.13;5.90;;;;;15.40;100507.00;;;;5024192;28;20236;-69
2023/08/04 03:37:52;;;;;;;14.97;5.37;;;;;15.40;100513.00;;;;5021757;28;20245;-68
2023/08/04 03:40:41;;;;;;;10.83;6.10;;;;;15.30;100509.00;;;;5026835;28;20229;-70
2023/08/04 03:43:28;;;;;;;12.97;5.93;;;;;15.40;100522.00;;;;5019814;28;20225;-69
2023/08/04 03:46:14;;;;;;;10.20;5.40;;;;;15.40;100528.00;;;;5018877;28;20842;-69
2023/08/04 03:49:01;;;;;;;11.07;5.63;;;;;15.30;100517.00;;;;5026011;28;20825;-69
2023/08/04 03:51:49;;;;;;;9.97;5.77;;;;;15.30;100515.00;;;;5026171;28;20292;-69
2023/08/04 03:54:35;;;;;;;19.13;5.87;;;;;15.20;100521.00;;;;5026613;28;20233;-69
2023/08/04 03:57:22;;;;;;;15.37;5.43;;;;;15.30;100528.00;;;;5017946;28;20255;-69
2023/08/04 04:00:09;;;;;;;13.77;6.07;;;;;15.30;100531.00;;;;5024923;28;20229;-69
2023/08/04 04:02:56;;;;;;;11.73;5.93;;;;;15.20;100534.00;;;;5025683;28;20306;-69
2023/08/04 04:05:42;;;;;;;11.30;5.90;;;;;15.20;100537.00;;;;5016828;28;20230;-69
2023/08/04 04:08:30;;;;;;;9.43;5.77;;;;;15.20;100541.00;;;;5019379;28;20228;-70
2023/08/04 04:11:16;;;;;;;12.10;6.13;;;;;15.20;100533.00;;;;5026058;28;20300;-69
2023/08/04 04:14:03;;;;;;;14.47;5.87;;;;;15.20;100543.00;;;;5014158;28;20742;-69
2023/08/04 04:16:50;;;;;;;12.00;6.03;;;;;15.20;100536.00;;;;5022221;28;20231;-70
2023/08/04 04:19:36;;;;;;;13.77;6.37;;;;;15.20;100540.00;;;;5018049;28;20808;-69
2023/08/04 04:22:23;;;;;;;14.23;6.20;;;;;15.30;100549.00;;;;5026119;28;20235;-70
2023/08/04 04:25:10;;;;;;;11.80;5.60;;;;;15.30;100549.00;;;;5025528;28;20240;-69
2023/08/04 04:27:57;;;;;;;12.67;6.30;;;;;15.30;100534.00;;;;5022562;28;20235;-70
2023/08/04 04:30:43;;;;;;;10.70;6.07;;;;;15.30;100545.00;;;;5025383;28;20229;-68
2023/08/04 04:33:30;;;;;;;11.30;5.83;;;;;15.30;100546.00;;;;5024930;28;20232;-70
2023/08/04 04:36:17;;;;;;;13.07;5.83;;;;;15.30;100558.00;;;;5024346;28;20702;-68
2023/08/04 04:39:03;;;;;;;14.70;5.73;;;;;15.40;100557.00;;;;5025340;28;20373;-69
2023/08/04 04:41:51;;;;;;;10.47;6.50;;;;;15.50;100550.00;;;;5026672;28;20234;-69
2023/08/04 04:44:38;;;;;;;10.43;5.90;;;;;15.60;100553.00;;;;5019758;28;20247;-70
2023/08/04 04:47:24;;;;;;;9.53;5.57;;;;;15.50;100551.00;;;;5018551;28;20304;-69
2023/08/04 04:50:10;;;;;;;11.10;6.33;;;;;15.50;100552.00;;;;5025004;28;20241;-69
2023/08/04 04:52:59;;;;;;;11.63;6.40;;;;;15.60;100549.00;;;;5025512;28;20233;-70
2023/08/04 04:55:45;;;;;;;16.83;6.83;;;;;15.60;100548.00;;;;5020490;28;20248;-69
2023/08/04 04:58:33;;;;;;;13.43;6.60;;;;;15.60;100559.00;;;;5023193;28;20235;-69
2023/08/04 05:01:19;;;;;;;14.40;6.07;;;;;15.60;100571.00;;;;5029802;28;20252;-69
2023/08/04 05:04:05;;;;;;;14.77;6.43;;;;;15.70;100554.00;;;;5016133;28;20244;-69
2023/08/04 05:06:52;;;;;;;15.93;6.27;;;;;15.70;100553.00;;;;5025730;28;20895;-69
2023/08/04 05:09:38;;;;;;;19.17;6.43;;;;;15.80;100555.00;;;;5025020;28;20246;-68
2023/08/04 05:12:25;;;;;;;14.57;6.73;;;;;15.80;100558.00;;;;5024598;28;20249;-70
2023/08/04 05:15:12;;;;;;;18.87;6.37;;;;;15.80;100567.00;;;;5025535;28;20900;-69
2023/08/04 05:17:59;;;;;;;12.43;6.00;;;;;15.90;100575.00;;;;5022355;28;20290;-69
2023/08/04 05:20:45;;;;;;;13.17;7.00;;;;;15.90;100562.00;;;;5022709;28;20241;-69
2023/08/04 05:23:31;;;;;;;15.90;6.47;;;;;16.00;100571.00;;;;5023913;28;20703;-70
2023/08/04 05:26:18;;;;;;;14.90;6.43;;;;;15.90;100583.00;;;;5024822;28;20248;-70
2023/08/04 05:29:05;;;;;;;14.33;6.43;;;;;16.00;100582.00;;;;5013056;28;20237;-69
2023/08/04 05:31:53;;;;;;;16.73;6.80;;;;;16.00;100582.00;;;;5024826;28;20349;-66
2023/08/04 05:34:39;;;;;;;10.47;6.83;;;;;16.00;100581.00;;;;5024465;28;20300;-69
2023/08/04 05:37:26;;;;;;;16.67;6.87;;;;;16.00;100578.00;;;;5024523;28;20281;-69
2023/08/04 05:40:12;;;;;;;13.60;6.77;;;;;16.00;100587.00;;;;5024172;28;20582;-70
2023/08/04 05:42:59;;;;;;;14.47;6.60;;;;;16.10;100583.00;;;;5016512;28;20376;-70
2023/08/04 05:45:48;;;;;;;12.43;6.87;;;;;16.00;100597.00;;;;5022870;28;20280;-68
2023/08/04 05:48:36;;;;;;;11.77;6.60;;;;;16.10;100598.00;;;;5020803;28;20222;-69
2023/08/04 05:51:22;;;;;;;16.83;6.30;;;;;16.00;100605.00;;;;5024848;28;20660;-70
2023/08/04 05:54:09;;;;;;;10.27;6.20;;;;;16.10;100611.00;;;;5021806;28;20721;-70
2023/08/04 05:56:55;;;;;;;11.17;6.13;;;;;16.20;100617.00;;;;5024430;28;20307;-69
2023/08/04 05:59:41;;;;;;;14.70;5.90;;;;;16.20;100622.00;;;;5019709;28;20237;-70
2023/08/04 06:02:28;;;;;;;14.30;6.30;;;;;16.10;100627.00;;;;5023700;28;20241;-70
2023/08/04 06:05:16;;;;;;;14.57;6.43;;;;;16.20;100624.00;;;;5022903;28;20238;-69
2023/08/04 06:08:03;;;;;;;16.53;6.00;;;;;16.30;100618.00;;;;5024639;28;20886;-70
2023/08/04 06:10:50;;;;;;;14.50;6.00;;;;;16.30;100625.00;;;;5016013;28;20237;-70
2023/08/04 06:13:36;;;;;;;12.57;6.47;;;;;16.50;100629.00;;;;5018101;28;20225;-70
2023/08/04 06:16:23;;;;;;;18.90;6.77;;;;;16.50;100629.00;;;;5015380;28;20237;-69
2023/08/04 06:19:09;;;;;;;16.07;6.17;;;;;16.50;100622.00;;;;5014521;28;20666;-70
2023/08/04 06:21:57;;;;;;;23.80;6.77;;;;;16.70;100628.00;;;;5020370;28;20283;-72
2023/08/04 06:24:44;;;;;;;15.07;6.57;;;;;16.80;100640.00;;;;5024657;28;20233;-70
2023/08/04 06:27:30;;;;;;;14.97;5.73;;;;;16.70;100642.00;;;;5008572;28;20292;-69
2023/08/04 06:30:18;;;;;;;12.03;5.90;;;;;16.70;100639.00;;;;5021590;28;20275;-68
2023/08/04 06:33:04;;;;;;;10.80;6.00;;;;;16.90;100643.00;;;;5022398;28;20253;-70
2023/08/04 06:35:50;;;;;;;13.03;5.70;;;;;16.90;100637.00;;;;5019499;28;20931;-70
2023/08/04 06:38:38;;;;;;;10.97;5.50;;;;;16.80;100638.00;;;;5024804;28;20357;-69
2023/08/04 06:41:24;;;;;;;13.40;5.47;;;;;16.90;100636.00;;;;5024096;28;20609;-69
2023/08/04 06:44:13;;;;;;;16.30;5.57;;;;;17.00;100648.00;;;;5023862;28;20746;-68
2023/08/04 06:46:59;;;;;;;12.50;5.27;;;;;17.00;100648.00;;;;5024238;28;20372;-70
2023/08/04 06:49:46;;;;;;;13.97;5.47;;;;;17.10;100656.00;;;;5022653;28;20858;-69
2023/08/04 06:52:32;;;;;;;15.53;5.37;;;;;17.00;100654.00;;;;5021188;28;20233;-67
2023/08/04 06:55:20;;;;;;;13.43;5.60;;;;;17.10;100662.00;;;;5021848;28;20626;-68
2023/08/04 06:58:07;;;;;;;10.60;5.57;;;;;17.10;100674.00;;;;5020603;28;20233;-68
2023/08/04 07:00:53;;;;;;;16.73;5.70;;;;;17.10;100671.00;;;;5026085;28;20237;-67
2023/08/04 07:03:39;;;;;;;12.67;5.20;;;;;17.20;100675.00;;;;5027451;28;20687;-68
2023/08/04 07:06:26;;;;;;;16.30;6.07;;;;;17.10;100676.00;;;;5027777;28;20226;-67
2023/08/04 07:09:12;;;;;;;15.93;5.37;;;;;17.00;100683.00;;;;5028163;28;20237;-67
2023/08/04 07:12:00;;;;;;;9.80;5.83;;;;;17.20;100679.00;;;;5027585;28;20369;-67
2023/08/04 07:14:46;;;;;;;10.60;5.67;;;;;17.20;100682.00;;;;5026519;28;20329;-68
2023/08/04 07:17:33;;;;;;;11.83;5.90;;;;;17.30;100686.00;;;;5024434;28;20222;-67
2023/08/04 07:20:19;;;;;;;11.73;6.27;;;;;17.50;100685.00;;;;5020281;28;20332;-67
2023/08/04 07:23:06;;;;;;;9.60;5.17;;;;;17.60;100680.00;;;;5023587;28;20372;-67
2023/08/04 07:25:56;;;;;;;13.00;5.80;;;;;17.80;100687.00;;;;5027309;28;20233;-67
2023/08/04 07:28:44;;;;;;;13.03;5.50;;;;;17.70;100691.00;;;;5023390;28;20222;-69
2023/08/04 07:31:32;;;;;;;9.77;4.50;;;;;17.90;100689.00;;;;5022832;28;20233;-69
2023/08/04 07:34:18;;;;;;;12.33;4.80;;;;;17.90;100692.00;;;;5025329;28;20278;-69
2023/08/04 07:37:06;;;;;;;11.63;4.83;;;;;17.70;100697.00;;;;5026981;28;20299;-69
2023/08/04 07:39:52;;;;;;;7.50;4.57;;;;;17.80;100688.00;;;;5025300;28;20257;-69
2023/08/04 07:42:39;;;;;;;9.03;4.33;;;;;17.80;100694.00;;;;5025869;28;20237;-68
2023/08/04 07:45:26;;;;;;;10.67;4.57;;;;;17.90;100699.00;;;;5027003;28;20364;-68
2023/08/04 07:48:13;;;;;;;8.10;4.00;;;;;18.20;100692.00;;;;5023512;28;20969;-68
2023/08/04 07:51:01;;;;;;;8.47;4.10;;;;;18.00;100697.00;;;;5017093;28;20334;-69
2023/08/04 07:53:49;;;;;;;6.57;3.97;;;;;18.20;100706.00;;;;5024943;28;20226;-69
2023/08/04 07:56:36;;;;;;;6.80;3.77;;;;;18.20;100700.00;;;;5027057;28;20232;-69
2023/08/04 07:59:22;;;;;;;10.17;4.30;;;;;18.20;100703.00;;;;5017233;28;20241;-69
2023/08/04 08:02:10;;;;;;;7.23;3.60;;;;;18.20;100717.00;;;;5026203;28;20272;-68
2023/08/04 08:04:57;;;;;;;7.70;3.77;;;;;18.30;100703.00;;;;5023688;28;20316;-70
2023/08/04 08:07:43;;;;;;;6.73;3.57;;;;;18.20;100710.00;;;;5027024;28;20224;-69
2023/08/04 08:10:32;;;;;;;9.37;3.93;;;;;18.60;100701.00;;;;5023858;28;20233;-69
2023/08/04 08:13:19;;;;;;;6.17;3.70;;;;;18.80;100702.00;;;;5026490;28;20224;-69
2023/08/04 08:16:10;;;;;;;8.63;4.07;;;;;18.90;100701.00;;;;5020873;28;20307;-68
2023/08/04 08:18:58;;;;;;;6.27;3.77;;;;;18.80;100706.00;;;;5025724;28;20236;-69
2023/08/04 08:21:44;;;;;;;10.77;3.77;;;;;18.60;100696.00;;;;5026402;28;20297;-69
2023/08/04 08:24:31;;;;;;;7.33;3.90;;;;;18.80;100711.00;;;;5024935;28;21000;-67
2023/08/04 08:27:17;;;;;;;6.20;3.67;;;;;18.80;100703.00;;;;5021978;28;20361;-68
2023/08/04 08:30:05;;;;;;;6.27;3.50;;;;;19.00;100699.00;;;;5018612;28;20319;-69
2023/08/04 08:32:52;;;;;;;9.13;3.97;;;;;19.30;100705.00;;;;5030019;28;20620;-69
2023/08/04 08:35:40;;;;;;;7.87;3.80;;;;;19.40;100711.00;;;;5025156;28;20222;-68
2023/08/04 08:38:26;;;;;;;8.07;3.83;;;;;19.50;100703.00;;;;5025804;28;20233;-69
2023/08/04 08:41:13;;;;;;;8.63;3.50;;;;;19.50;100691.00;;;;5022243;28;20300;-68
2023/08/04 08:44:00;;;;;;;7.20;3.50;;;;;20.00;100690.00;;;;5025178;28;20872;-69
2023/08/04 08:46:47;;;;;;;6.90;3.20;;;;;19.90;100708.00;;;;5019763;28;20238;-69
2023/08/04 08:49:41;;;;;;;6.30;3.40;;;;;19.70;100718.00;;;;5024578;28;20234;-69
2023/08/04 08:52:31;;;;;;;4.80;3.13;;;;;19.60;100718.00;;;;5023401;28;20235;-69
2023/08/04 08:55:18;;;;;;;3.90;3.00;;;;;19.30;100724.00;;;;5025074;28;20235;-67
2023/08/04 08:58:05;;;;;;;5.43;3.37;;;;;19.00;100737.00;;;;5020058;28;20341;-71
2023/08/04 09:00:51;;;;;;;8.17;3.27;;;;;19.10;100739.00;;;;5021094;28;20766;-71
2023/08/04 09:03:39;;;;;;;6.27;3.10;;;;;19.10;100736.00;;;;5021177;28;20634;-70
2023/08/04 09:06:26;;;;;;;7.47;3.50;;;;;19.20;100729.00;;;;5022422;28;20235;-72
2023/08/04 09:09:13;;;;;;;6.40;3.37;;;;;19.50;100729.00;;;;5025854;28;20234;-72
2023/08/04 09:12:00;;;;;;;12.77;3.40;;;;;20.00;100730.00;;;;5024524;28;20311;-72
2023/08/04 09:14:48;;;;;;;5.07;2.93;;;;;20.30;100724.00;;;;5020180;28;20222;-72
2023/08/04 09:17:36;;;;;;;5.10;3.23;;;;;21.00;100713.00;;;;5020756;28;20269;-71
2023/08/04 09:20:30;;;;;;;4.27;2.50;;;;;20.80;100719.00;;;;5021998;28;20243;-73
2023/08/04 09:23:16;;;;;;;5.53;2.67;;;;;20.30;100740.00;;;;5024905;28;20246;-73
2023/08/04 09:26:03;;;;;;;3.77;2.40;;;;;19.60;100751.00;;;;5021487;28;20728;-71
2023/08/04 09:29:04;;;;;;;4.80;2.77;;;;;19.80;100756.00;;;;5024656;28;20371;-71
2023/08/04 09:31:50;;;;;;;5.77;2.47;;;;;19.80;100744.00;;;;5019906;28;20246;-72
2023/08/04 09:34:37;;;;;;;4.90;2.07;;;;;19.60;100742.00;;;;5024843;28;20239;-70
2023/08/04 09:37:23;;;;;;;3.27;2.30;;;;;19.80;100750.00;;;;5024989;28;20711;-71
2023/08/04 09:40:15;;;;;;;2.23;1.83;;;;;19.80;100746.00;;;;5016875;28;20243;-72
2023/08/04 09:43:03;;;;;;;7.93;2.37;;;;;19.90;100753.00;;;;5018680;28;20313;-71
2023/08/04 09:45:55;;;;;;;3.93;1.97;;;;;19.70;100755.00;;;;5022093;28;20234;-71
2023/08/04 09:48:41;;;;;;;4.30;1.97;;;;;19.20;100754.00;;;;5024860;28;20293;-71
2023/08/04 09:51:28;;;;;;;2.03;1.87;;;;;19.50;100745.00;;;;5025158;28;20733;-72
2023/08/04 09:54:14;;;;;;;3.13;2.00;;;;;20.30;100726.00;;;;5024496;28;20308;-72
2023/08/04 09:57:02;;;;;;;4.23;2.27;;;;;21.70;100719.00;;;;5011595;28;20279;-70
2023/08/04 09:59:50;;;;;;;4.23;2.20;;;;;21.50;100737.00;;;;5039267;28;20711;-72
2023/08/04 10:02:37;;;;;;;2.37;2.00;;;;;21.20;100739.00;;;;5023016;28;20778;-72
2023/08/04 10:05:25;;;;;;;3.33;1.80;;;;;20.80;100737.00;;;;5024884;28;20306;-71
2023/08/04 10:08:12;;;;;;;2.53;1.70;;;;;20.60;100752.00;;;;5024691;28;20361;-72
2023/08/04 10:10:59;;;;;;;2.13;1.80;;;;;20.60;100759.00;;;;5024643;28;20248;-72
2023/08/04 10:13:49;;;;;;;3.10;1.90;;;;;20.50;100761.00;;;;5023518;28;20264;-71
2023/08/04 10:16:38;;;;;;;4.63;1.77;;;;;20.30;100761.00;;;;5022092;28;20236;-71
2023/08/04 10:19:25;;;;;;;5.13;1.87;;;;;20.30;100765.00;;;;5019005;28;20297;-71
2023/08/04 10:22:12;;;;;;;3.70;2.00;;;;;20.40;100766.00;;;;5017331;28;20727;-71
2023/08/04 10:24:59;;;;;;;2.47;1.77;;;;;20.50;100769.00;;;;5017682;28;20241;-71
2023/08/04 10:27:49;;;;;;;2.37;1.90;;;;;20.50;100769.00;;;;5024619;28;20592;-70
2023/08/04 10:30:35;;;;;;;3.57;1.90;;;;;20.40;100770.00;;;;5022985;28;20232;-71
2023/08/04 10:33:36;;;;;;;3.77;1.90;;;;;20.40;100766.00;;;;5024225;28;20240;-71
2023/08/04 10:36:24;;;;;;;2.80;2.00;;;;;20.20;100763.00;;;;5024353;28;20752;-70
2023/08/04 10:39:27;;;;;;;4.00;1.70;;;;;20.70;100764.00;;;;5024333;28;20291;-71
2023/08/04 10:42:22;;;;;;;3.63;2.00;;;;;21.10;100754.00;;;;5025245;28;20259;-71
2023/08/04 10:45:09;;;;;;;4.10;2.00;;;;;22.00;100735.00;;;;5026980;28;20251;-71
2023/08/04 10:47:56;;;;;;;2.60;1.97;;;;;21.70;100756.00;;;;5029315;28;20368;-71
2023/08/04 10:50:58;;;;;;;4.47;1.93;;;;;21.70;100767.00;;;;5010709;28;20233;-72
2023/08/04 10:53:44;;;;;;;2.30;1.73;;;;;20.80;100771.00;;;;5027914;28;20248;-70
2023/08/04 10:56:30;;;;;;;3.00;1.90;;;;;20.50;100777.00;;;;5027573;28;20721;-71
2023/08/04 10:59:17;;;;;;;4.50;1.90;;;;;20.00;100782.00;;;;5025191;28;20236;-69
2023/08/04 11:02:03;;;;;;;3.33;1.90;;;;;19.90;100789.00;;;;5024773;28;20371;-69
2023/08/04 11:04:50;;;;;;;2.43;2.17;;;;;20.10;100797.00;;;;5027359;28;20236;-69
2023/08/04 11:07:38;;;;;;;2.67;1.57;;;;;19.70;100795.00;;;;5021707;28;20712;-71
2023/08/04 11:10:25;;;;;;;2.20;2.03;;;;;20.30;100759.00;;;;5021462;28;20234;-72
2023/08/04 11:13:11;;;;;;;3.67;1.60;;;;;21.50;100756.00;;;;5018182;28;20240;-72
2023/08/04 11:15:57;;;;;;;2.87;1.60;;;;;22.70;100754.00;;;;5018629;28;20238;-71
2023/08/04 11:18:43;;;;;;;1.90;1.70;;;;;22.90;100748.00;;;;5016077;28;20601;-71
2023/08/04 11:21:30;;;;;;;2.10;1.77;;;;;23.10;100764.00;;;;5014285;28;20248;-70
2023/08/04 11:24:22;;;;;;;3.60;1.70;;;;;22.50;100777.00;;;;5023774;28;21326;-70
2023/08/04 11:27:10;;;;;;;2.87;2.00;;;;;21.50;100782.00;;;;5024341;28;20233;-69
2023/08/04 11:29:57;;;;;;;4.20;1.90;;;;;21.20;100787.00;;;;5021784;28;20225;-71
2023/08/04 11:32:48;;;;;;;5.27;2.30;;;;;20.90;100781.00;;;;5022208;28;20241;-70
2023/08/04 11:35:35;;;;;;;2.17;1.67;;;;;21.20;100777.00;;;;5024088;28;20237;-70
2023/08/04 11:38:21;;;;;;;3.97;2.10;;;;;22.70;100756.00;;;;5025442;28;20230;-70
2023/08/04 11:41:12;;;;;;;2.37;1.70;;;;;23.10;100747.00;;;;5021531;28;20720;-70
2023/08/04 11:44:00;;;;;;;1.83;1.70;;;;;22.60;100768.00;;;;5020966;28;20324;-71
2023/08/04 11:46:46;;;;;;;3.57;2.00;;;;;22.00;100773.00;;;;5023021;28;20241;-71
2023/08/04 11:49:32;;;;;;;2.73;1.90;;;;;21.30;100789.00;;;;5025348;28;20316;-71
2023/08/04 11:52:18;;;;;;;3.63;1.80;;;;;21.00;100794.00;;;;5025532;28;20260;-71
2023/08/04 11:55:09;;;;;;;3.10;1.80;;;;;20.70;100794.00;;;;5020972;28;20226;-71
2023/08/04 11:57:57;;;;;;;3.23;1.67;;;;;20.50;100808.00;;;;5018596;28;22108;-71
2023/08/04 12:00:45;;;;;;;3.07;1.80;;;;;20.20;100814.00;;;;5022514;28;20225;-70
2023/08/04 12:03:45;;;;;;;3.17;1.67;;;;;20.20;100786.00;;;;5024033;28;20710;-70
2023/08/04 12:06:33;;;;;;;6.80;1.63;;;;;21.00;100791.00;;;;5022046;28;20235;-71
2023/08/04 12:09:19;;;;;;;3.47;1.60;;;;;22.30;100776.00;;;;5016674;28;20768;-70
2023/08/04 12:12:07;;;;;;;1.47;1.37;;;;;22.50;100783.00;;;;5018187;28;20239;-71
2023/08/04 12:14:58;;;;;;;2.03;1.47;;;;;23.20;100782.00;;;;5024623;28;20606;-70
2023/08/04 12:17:47;;;;;;;4.83;1.77;;;;;23.20;100782.00;;;;5018432;28;20309;-71
2023/08/04 12:20:34;;;;;;;2.80;1.50;;;;;23.40;100786.00;;;;5017284;28;20230;-71
2023/08/04 12:23:20;;;;;;;1.47;1.37;;;;;23.30;100788.00;;;;5019250;28;20242;-71
2023/08/04 12:26:07;;;;;;;1.50;1.40;;;;;22.90;100787.00;;;;5023694;28;20315;-70
2023/08/04 12:28:53;;;;;;;1.97;1.20;;;;;23.10;100796.00;;;;5026223;28;20887;-72
2023/08/04 12:31:41;;;;;;;2.03;1.40;;;;;23.80;100785.00;;;;5024676;28;20829;-74
2023/08/04 12:34:28;;;;;;;1.30;1.20;;;;;24.20;100785.00;;;;5017245;28;20639;-72
2023/08/04 12:37:14;;;;;;;1.40;1.23;;;;;24.30;100769.00;;;;5024398;28;20352;-69
2023/08/04 12:40:01;;;;;;;2.47;1.40;;;;;24.10;100769.00;;;;5025016;28;20389;-71
2023/08/04 12:42:47;;;;;;;1.40;1.30;;;;;23.40;100797.00;;;;5023489;28;20323;-71
2023/08/04 12:45:33;;;;;;;1.57;1.40;;;;;22.50;100824.00;;;;5021423;28;20261;-72
2023/08/04 12:48:21;;;;;;;1.37;1.20;;;;;22.10;100812.00;;;;5022680;28;20237;-73
2023/08/04 12:51:08;;;;;;;1.30;1.20;;;;;21.80;100815.00;;;;5019823;28;20299;-72
2023/08/04 12:53:54;;;;;;;2.80;1.40;;;;;21.60;100811.00;;;;5019638;28;20589;-71
2023/08/04 12:56:40;;;;;;;1.60;1.27;;;;;21.80;100817.00;;;;5024929;28;21058;-74
2023/08/04 12:59:27;;;;;;;22.30;4.20;;;;;21.70;100817.00;;;;5019735;28;20585;-70
2023/08/04 13:02:13;;;;;;;19.23;5.33;;;;;21.80;100824.00;;;;5023317;28;20305;-72
2023/08/04 13:05:03;;;;;;;22.43;6.07;;;;;21.80;100803.00;;;;5023899;28;20233;-71
2023/08/04 13:07:49;;;;;;;1.33;1.23;;;;;22.00;100832.00;;;;5025637;28;20304;-72
2023/08/04 13:10:35;;;;;;;7.47;2.23;;;;;21.40;100849.00;;;;5021057;28;20770;-72
2023/08/04 13:13:22;;;;;;;1.60;1.40;;;;;21.00;100853.00;;;;5022545;28;20584;-73
2023/08/04 13:16:10;;;;;;;2.97;1.37;;;;;20.90;100849.00;;;;5025471;28;20714;-74
2023/08/04 13:18:56;;;;;;;1.63;1.40;;;;;20.70;100854.00;;;;5020483;28;20709;-76
2023/08/04 13:21:44;;;;;;;1.57;1.30;;;;;20.80;100859.00;;;;5025444;28;20252;-69
2023/08/04 13:24:31;;;;;;;5.07;2.00;;;;;20.90;100855.00;;;;5022007;28;20249;-72
2023/08/04 13:27:17;;;;;;;2.50;1.70;;;;;20.90;100850.00;;;;5022474;28;20237;-73
2023/08/04 13:30:05;;;;;;;1.57;1.20;;;;;21.20;100837.00;;;;5024369;28;20241;-73
2023/08/04 13:32:51;;;;;;;1.83;1.20;;;;;21.50;100847.00;;;;5021642;28;20845;-72
2023/08/04 13:35:38;;;;;;;2.70;1.27;;;;;21.50;100848.00;;;;5020404;28;20229;-72
2023/08/04 13:38:25;;;;;;;1.20;1.10;;;;;21.50;100847.00;;;;5021764;28;20247;-73
2023/08/04 13:41:12;;;;;;;1.40;1.10;;;;;21.60;100849.00;;;;5008123;28;20234;-73